TimeEDT,TemperatureF,Dew PointF,Humidity,Sea Level PressureIn,VisibilityMPH,Wind Direction,Wind SpeedMPH,Gust SpeedMPH,PrecipitationIn,Events,Conditions,WindDirDegrees,DateUTC
12:53 AM,64.9,55.9,73,30.11,10.0,SE,6.9,-,N/A,,Clear,140,2013-04-18 04:53:00
1:53 AM,64.9,55.9,73,30.09,10.0,SE,8.1,-,N/A,,Clear,130,2013-04-18 05:53:00
2:53 AM,64.0,55.9,75,30.07,10.0,SE,12.7,23.0,N/A,,Clear,130,2013-04-18 06:53:00
3:53 AM,64.0,55.9,75,30.05,10.0,SE,10.4,-,N/A,,Clear,140,2013-04-18 07:53:00
4:53 AM,64.0,55.9,75,30.02,10.0,SE,10.4,-,N/A,,Clear,140,2013-04-18 08:53:00
5:53 AM,64.9,55.9,73,30.01,10.0,SE,15.0,19.6,N/A,,Clear,140,2013-04-18 09:53:00
6:53 AM,64.9,55.9,73,30.02,10.0,SSE,9.2,-,N/A,,Clear,150,2013-04-18 10:53:00
7:53 AM,68.0,55.9,65,30.04,10.0,South,6.9,-,N/A,,Clear,180,2013-04-18 11:53:00
8:53 AM,72.0,57.0,59,30.04,10.0,South,6.9,-,N/A,,Clear,180,2013-04-18 12:53:00
9:53 AM,75.9,55.9,50,30.02,10.0,South,6.9,17.3,N/A,,Clear,170,2013-04-18 13:53:00
10:53 AM,79.0,55.9,45,30.01,10.0,South,11.5,19.6,N/A,,Partly Cloudy,180,2013-04-18 14:53:00
11:53 AM,75.9,59.0,56,30.01,3.0,SW,8.1,19.6,0.02,Rain,Rain,230,2013-04-18 15:53:00
12:53 PM,80.1,60.1,50,29.96,7.0,South,6.9,-,0.02,,Scattered Clouds,190,2013-04-18 16:53:00
12:55 PM,80.6,60.8,51,29.98,10.0,South,5.8,-,N/A,,Scattered Clouds,190,2013-04-18 16:55:00
1:53 PM,82.0,55.9,41,29.91,10.0,SSE,16.1,20.7,N/A,,Scattered Clouds,160,2013-04-18 17:53:00
2:53 PM,82.9,54.0,37,29.88,10.0,South,11.5,20.7,N/A,,Scattered Clouds,190,2013-04-18 18:53:00
3:53 PM,82.9,54.0,37,29.86,10.0,South,11.5,25.3,N/A,,Mostly Cloudy,180,2013-04-18 19:53:00
4:53 PM,82.9,54.0,37,29.86,10.0,South,11.5,23.0,N/A,,Mostly Cloudy,180,2013-04-18 20:53:00
5:53 PM,80.1,54.0,40,29.86,10.0,South,19.6,31.1,N/A,,Mostly Cloudy,170,2013-04-18 21:53:00
6:53 PM,79.0,54.0,42,29.85,10.0,SSE,21.9,34.5,N/A,,Partly Cloudy,160,2013-04-18 22:53:00
7:53 PM,77.0,52.0,42,29.85,10.0,South,18.4,24.2,N/A,,Clear,170,2013-04-18 23:53:00
8:53 PM,75.0,52.0,44,29.86,10.0,South,11.5,20.7,N/A,,Clear,170,2013-04-19 00:53:00
9:53 PM,73.9,52.0,46,29.86,10.0,SSE,16.1,31.1,N/A,,Clear,160,2013-04-19 01:53:00
10:53 PM,73.0,52.0,48,29.84,10.0,South,13.8,23.0,N/A,,Clear,170,2013-04-19 02:53:00
11:53 PM,72.0,51.1,48,29.81,10.0,South,11.5,26.5,N/A,,Clear,170,2013-04-19 03:53:00